sensor_id;sensor_type;location;lat;lon;timestamp;pressure;altitude;pressure_sealevel;temperature;humidity
51083;BME280;37131;42.694;23.350;2022-10-01T00:00:20;95896.31;;;13.81;100.00
51083;BME280;37131;42.694;23.350;2022-10-01T00:02:46;95880.13;;;13.84;100.00
51083;BME280;37131;42.694;23.350;2022-10-01T00:05:12;95877.03;;;13.51;100.00
51083;BME280;37131;42.694;23.350;2022-10-01T00:07:38;95905.38;;;13.43;100.00
51083;BME280;37131;42.694;23.350;2022-10-01T00:10:05;95899.50;;;13.83;100.00
51083;BME280;37131;42.694;23.350;2022-10-01T00:12:31;95894.94;;;14.02;100.00
51083;BME280;37131;42.694;23.350;2022-10-01T00:14:56;95892.31;;;13.66;100.00
51083;BME280;37131;42.694;23.350;2022-10-01T00:17:21;95863.38;;;13.49;100.00
51083;BME280;37131;42.694;23.350;2022-10-01T00:19:47;95900.75;;;13.92;100.00
51083;BME280;37131;42.694;23.350;2022-10-01T00:22:12;95893.94;;;13.79;100.00
51083;BME280;37131;42.694;23.350;2022-10-01T00:24:37;95888.22;;;13.82;100.00
51083;BME280;37131;42.694;23.350;2022-10-01T00:27:03;95894.69;;;13.56;100.00
51083;BME280;37131;42.694;23.350;2022-10-01T00:29:28;95883.06;;;13.52;100.00
51083;BME280;37131;42.694;23.350;2022-10-01T00:31:55;95882.28;;;13.51;100.00
51083;BME280;37131;42.694;23.350;2022-10-01T00:34:21;95883.31;;;13.62;100.00
51083;BME280;37131;42.694;23.350;2022-10-01T00:36:46;95884.66;;;13.41;100.00
51083;BME280;37131;42.694;23.350;2022-10-01T00:39:12;95890.03;;;13.35;100.00
51083;BME280;37131;42.694;23.350;2022-10-01T00:41:37;95884.22;;;13.68;100.00
51083;BME280;37131;42.694;23.350;2022-10-01T00:44:30;95889.28;;;13.27;100.00
51083;BME280;37131;42.694;23.350;2022-10-01T00:47:01;95879.44;;;13.53;100.00
51083;BME280;37131;42.694;23.350;2022-10-01T00:49:30;95868.84;;;13.36;100.00
51083;BME280;37131;42.694;23.350;2022-10-01T00:52:01;95877.63;;;13.11;100.00
51083;BME280;37131;42.694;23.350;2022-10-01T00:56:57;95882.09;;;13.23;100.00
51083;BME280;37131;42.694;23.350;2022-10-01T00:59:23;95876.44;;;12.95;100.00
51083;BME280;37131;42.694;23.350;2022-10-01T01:01:49;95864.75;;;12.98;100.00
51083;BME280;37131;42.694;23.350;2022-10-01T01:04:14;95889.78;;;13.36;100.00
51083;BME280;37131;42.694;23.350;2022-10-01T01:06:45;95896.78;;;13.24;100.00
51083;BME280;37131;42.694;23.350;2022-10-01T01:09:12;95885.91;;;13.50;100.00
51083;BME280;37131;42.694;23.350;2022-10-01T01:11:56;95877.38;;;13.55;100.00
51083;BME280;37131;42.694;23.350;2022-10-01T01:14:40;95881.97;;;13.60;100.00
51083;BME280;37131;42.694;23.350;2022-10-01T01:17:18;95872.38;;;13.77;100.00
51083;BME280;37131;42.694;23.350;2022-10-01T01:20:07;95878.88;;;13.51;100.00
51083;BME280;37131;42.694;23.350;2022-10-01T01:22:44;95865.41;;;13.36;100.00
51083;BME280;37131;42.694;23.350;2022-10-01T01:25:19;95873.31;;;13.05;100.00
51083;BME280;37131;42.694;23.350;2022-10-01T01:28:13;95867.41;;;13.22;100.00
51083;BME280;37131;42.694;23.350;2022-10-01T01:30:41;95865.88;;;12.90;100.00
51083;BME280;37131;42.694;23.350;2022-10-01T01:33:17;95877.78;;;12.86;100.00
51083;BME280;37131;42.694;23.350;2022-10-01T01:36:08;95864.88;;;13.15;100.00
51083;BME280;37131;42.694;23.350;2022-10-01T01:38:40;95875.44;;;12.96;100.00
51083;BME280;37131;42.694;23.350;2022-10-01T01:41:07;95882.59;;;12.89;100.00
51083;BME280;37131;42.694;23.350;2022-10-01T01:43:38;95874.56;;;13.14;100.00
51083;BME280;37131;42.694;23.350;2022-10-01T01:46:06;95877.66;;;13.23;100.00
51083;BME280;37131;42.694;23.350;2022-10-01T01:48:36;95843.31;;;12.89;100.00
51083;BME280;37131;42.694;23.350;2022-10-01T01:51:23;95863.28;;;12.72;100.00
51083;BME280;37131;42.694;23.350;2022-10-01T01:53:52;95793.09;;;12.08;100.00
51083;BME280;37131;42.694;23.350;2022-10-01T01:56:18;95880.22;;;12.69;100.00
51083;BME280;37131;42.694;23.350;2022-10-01T01:58:43;95868.22;;;12.13;100.00
51083;BME280;37131;42.694;23.350;2022-10-01T02:01:49;95890.91;;;12.37;100.00
51083;BME280;37131;42.694;23.350;2022-10-01T02:05:06;95847.78;;;12.40;100.00
51083;BME280;37131;42.694;23.350;2022-10-01T02:10:27;95891.66;;;12.87;100.00
51083;BME280;37131;42.694;23.350;2022-10-01T02:15:57;95907.38;;;12.87;100.00
51083;BME280;37131;42.694;23.350;2022-10-01T02:21:19;95857.56;;;12.63;100.00
51083;BME280;37131;42.694;23.350;2022-10-01T02:23:53;95902.59;;;12.65;100.00
51083;BME280;37131;42.694;23.350;2022-10-01T02:26:23;95897.03;;;12.61;100.00
51083;BME280;37131;42.694;23.350;2022-10-01T02:28:53;95811.88;;;11.80;100.00
51083;BME280;37131;42.694;23.350;2022-10-01T02:31:21;95906.63;;;12.98;100.00
51083;BME280;37131;42.694;23.350;2022-10-01T02:33:48;95930.47;;;12.90;100.00
51083;BME280;37131;42.694;23.350;2022-10-01T02:36:16;95917.34;;;12.78;100.00
51083;BME280;37131;42.694;23.350;2022-10-01T02:38:44;95907.78;;;12.53;100.00
51083;BME280;37131;42.694;23.350;2022-10-01T02:41:14;95932.53;;;12.69;100.00
51083;BME280;37131;42.694;23.350;2022-10-01T02:44:16;95910.19;;;13.04;100.00
51083;BME280;37131;42.694;23.350;2022-10-01T02:47:14;95949.94;;;13.12;100.00
51083;BME280;37131;42.694;23.350;2022-10-01T02:49:42;95902.44;;;13.09;100.00
51083;BME280;37131;42.694;23.350;2022-10-01T02:52:17;95917.06;;;12.86;100.00
51083;BME280;37131;42.694;23.350;2022-10-01T02:54:59;95939.56;;;13.18;100.00
51083;BME280;37131;42.694;23.350;2022-10-01T02:57:27;95930.44;;;13.39;100.00
51083;BME280;37131;42.694;23.350;2022-10-01T03:00:05;95918.22;;;13.32;100.00
51083;BME280;37131;42.694;23.350;2022-10-01T03:02:31;95925.22;;;13.50;100.00
51083;BME280;37131;42.694;23.350;2022-10-01T03:04:57;95925.13;;;13.69;100.00
51083;BME280;37131;42.694;23.350;2022-10-01T03:07:24;95891.53;;;13.66;100.00
51083;BME280;37131;42.694;23.350;2022-10-01T03:09:50;95913.19;;;13.61;100.00
51083;BME280;37131;42.694;23.350;2022-10-01T03:12:16;95916.34;;;13.51;100.00
51083;BME280;37131;42.694;23.350;2022-10-01T03:14:43;95914.28;;;13.65;100.00
51083;BME280;37131;42.694;23.350;2022-10-01T03:17:09;95913.81;;;13.45;100.00
51083;BME280;37131;42.694;23.350;2022-10-01T03:19:35;95930.91;;;13.47;100.00
51083;BME280;37131;42.694;23.350;2022-10-01T03:22:00;95929.53;;;13.45;100.00
51083;BME280;37131;42.694;23.350;2022-10-01T03:24:26;95926.19;;;13.26;100.00
51083;BME280;37131;42.694;23.350;2022-10-01T03:26:51;95939.59;;;13.60;100.00
51083;BME280;37131;42.694;23.350;2022-10-01T03:29:16;95921.25;;;13.48;100.00
51083;BME280;37131;42.694;23.350;2022-10-01T03:31:42;95951.91;;;13.29;100.00
51083;BME280;37131;42.694;23.350;2022-10-01T03:34:07;95942.56;;;13.33;100.00
51083;BME280;37131;42.694;23.350;2022-10-01T03:36:33;95949.59;;;13.21;100.00
51083;BME280;37131;42.694;23.350;2022-10-01T03:38:58;95953.00;;;13.40;100.00
51083;BME280;37131;42.694;23.350;2022-10-01T03:41:24;95934.06;;;12.77;100.00
51083;BME280;37131;42.694;23.350;2022-10-01T03:43:49;95938.44;;;13.25;100.00
51083;BME280;37131;42.694;23.350;2022-10-01T03:46:14;95940.97;;;13.20;100.00
51083;BME280;37131;42.694;23.350;2022-10-01T03:48:40;95925.72;;;13.29;100.00
51083;BME280;37131;42.694;23.350;2022-10-01T03:51:05;95937.94;;;13.35;100.00
51083;BME280;37131;42.694;23.350;2022-10-01T03:53:31;95929.34;;;13.28;100.00
51083;BME280;37131;42.694;23.350;2022-10-01T03:55:58;95914.03;;;13.01;100.00
51083;BME280;37131;42.694;23.350;2022-10-01T03:58:23;95918.66;;;12.99;100.00
51083;BME280;37131;42.694;23.350;2022-10-01T04:00:49;95897.69;;;12.57;100.00
51083;BME280;37131;42.694;23.350;2022-10-01T04:03:16;95926.59;;;12.62;100.00
51083;BME280;37131;42.694;23.350;2022-10-01T04:05:42;95927.88;;;12.90;100.00
51083;BME280;37131;42.694;23.350;2022-10-01T04:08:08;95897.53;;;12.70;100.00
51083;BME280;37131;42.694;23.350;2022-10-01T04:10:33;95891.31;;;12.83;100.00
51083;BME280;37131;42.694;23.350;2022-10-01T04:12:59;95880.56;;;13.03;100.00
51083;BME280;37131;42.694;23.350;2022-10-01T04:15:24;95894.38;;;13.22;100.00
51083;BME280;37131;42.694;23.350;2022-10-01T04:17:50;95893.56;;;13.10;100.00
51083;BME280;37131;42.694;23.350;2022-10-01T04:20:15;95918.25;;;12.53;100.00
51083;BME280;37131;42.694;23.350;2022-10-01T04:22:41;95914.44;;;12.68;100.00
51083;BME280;37131;42.694;23.350;2022-10-01T04:25:08;95923.41;;;12.78;100.00
51083;BME280;37131;42.694;23.350;2022-10-01T04:27:37;95933.50;;;13.05;100.00
51083;BME280;37131;42.694;23.350;2022-10-01T04:30:04;95932.13;;;13.03;100.00
51083;BME280;37131;42.694;23.350;2022-10-01T04:32:29;95914.13;;;12.45;100.00
51083;BME280;37131;42.694;23.350;2022-10-01T04:34:55;95919.91;;;12.66;100.00
51083;BME280;37131;42.694;23.350;2022-10-01T04:37:21;95897.84;;;12.92;100.00
51083;BME280;37131;42.694;23.350;2022-10-01T04:39:46;95880.75;;;12.59;100.00
51083;BME280;37131;42.694;23.350;2022-10-01T04:42:12;95892.38;;;12.63;100.00
51083;BME280;37131;42.694;23.350;2022-10-01T04:44:38;95891.03;;;13.03;100.00
51083;BME280;37131;42.694;23.350;2022-10-01T04:47:04;95907.09;;;12.76;100.00
51083;BME280;37131;42.694;23.350;2022-10-01T04:49:29;95918.38;;;13.07;100.00
51083;BME280;37131;42.694;23.350;2022-10-01T04:51:57;95926.13;;;12.84;100.00
51083;BME280;37131;42.694;23.350;2022-10-01T04:54:22;95934.09;;;12.89;100.00
51083;BME280;37131;42.694;23.350;2022-10-01T04:56:48;95935.88;;;12.95;100.00
51083;BME280;37131;42.694;23.350;2022-10-01T04:59:13;95952.13;;;12.97;100.00
51083;BME280;37131;42.694;23.350;2022-10-01T05:01:38;95942.50;;;13.09;100.00
51083;BME280;37131;42.694;23.350;2022-10-01T05:04:06;95934.22;;;13.43;100.00
51083;BME280;37131;42.694;23.350;2022-10-01T05:06:32;95934.44;;;13.53;100.00
51083;BME280;37131;42.694;23.350;2022-10-01T05:08:58;95942.63;;;13.45;100.00
51083;BME280;37131;42.694;23.350;2022-10-01T05:11:23;95948.47;;;12.86;100.00
51083;BME280;37131;42.694;23.350;2022-10-01T05:13:48;95964.00;;;12.99;100.00
51083;BME280;37131;42.694;23.350;2022-10-01T05:16:15;95906.28;;;13.06;100.00
51083;BME280;37131;42.694;23.350;2022-10-01T05:18:40;95966.31;;;13.38;100.00
51083;BME280;37131;42.694;23.350;2022-10-01T05:21:07;95964.88;;;13.54;100.00
51083;BME280;37131;42.694;23.350;2022-10-01T05:23:34;95955.31;;;13.60;100.00
51083;BME280;37131;42.694;23.350;2022-10-01T05:25:59;95943.59;;;13.74;100.00
51083;BME280;37131;42.694;23.350;2022-10-01T05:28:25;95949.16;;;13.54;100.00
51083;BME280;37131;42.694;23.350;2022-10-01T05:30:52;95945.97;;;13.64;100.00
51083;BME280;37131;42.694;23.350;2022-10-01T05:33:17;95941.41;;;13.17;100.00
51083;BME280;37131;42.694;23.350;2022-10-01T05:35:43;95960.50;;;13.36;100.00
51083;BME280;37131;42.694;23.350;2022-10-01T05:38:09;95962.34;;;13.47;100.00
51083;BME280;37131;42.694;23.350;2022-10-01T05:40:34;95962.72;;;13.63;100.00
51083;BME280;37131;42.694;23.350;2022-10-01T05:43:00;95929.13;;;13.29;100.00
51083;BME280;37131;42.694;23.350;2022-10-01T05:45:28;95966.53;;;13.91;100.00
51083;BME280;37131;42.694;23.350;2022-10-01T05:48:00;95977.91;;;13.84;100.00
51083;BME280;37131;42.694;23.350;2022-10-01T05:50:27;95946.22;;;14.21;100.00
51083;BME280;37131;42.694;23.350;2022-10-01T05:52:55;95919.44;;;14.19;99.89
51083;BME280;37131;42.694;23.350;2022-10-01T05:55:21;95936.66;;;13.92;99.09
51083;BME280;37131;42.694;23.350;2022-10-01T05:57:56;95927.63;;;13.64;100.00
51083;BME280;37131;42.694;23.350;2022-10-01T06:00:22;95932.50;;;13.37;100.00
51083;BME280;37131;42.694;23.350;2022-10-01T06:02:51;95942.13;;;13.24;100.00
51083;BME280;37131;42.694;23.350;2022-10-01T06:05:18;95944.91;;;13.41;100.00
51083;BME280;37131;42.694;23.350;2022-10-01T06:07:43;95947.25;;;13.73;100.00
51083;BME280;37131;42.694;23.350;2022-10-01T06:10:09;95962.53;;;13.88;100.00
51083;BME280;37131;42.694;23.350;2022-10-01T06:12:34;95988.63;;;13.95;98.18
51083;BME280;37131;42.694;23.350;2022-10-01T06:15:00;95998.78;;;14.27;95.60
51083;BME280;37131;42.694;23.350;2022-10-01T06:17:25;95989.78;;;14.11;98.92
51083;BME280;37131;42.694;23.350;2022-10-01T06:19:50;96000.81;;;14.13;100.00
51083;BME280;37131;42.694;23.350;2022-10-01T06:22:16;95996.38;;;14.49;97.49
51083;BME280;37131;42.694;23.350;2022-10-01T06:24:42;95992.63;;;14.45;93.70
51083;BME280;37131;42.694;23.350;2022-10-01T06:27:07;96002.88;;;14.58;95.65
51083;BME280;37131;42.694;23.350;2022-10-01T06:29:34;96004.72;;;13.98;97.38
51083;BME280;37131;42.694;23.350;2022-10-01T06:32:00;96005.88;;;14.38;97.50
51083;BME280;37131;42.694;23.350;2022-10-01T06:34:25;95998.66;;;14.69;94.67
51083;BME280;37131;42.694;23.350;2022-10-01T06:36:51;96001.84;;;14.71;96.37
51083;BME280;37131;42.694;23.350;2022-10-01T06:39:16;95989.63;;;14.77;94.63
51083;BME280;37131;42.694;23.350;2022-10-01T06:41:41;95934.88;;;14.56;89.67
51083;BME280;37131;42.694;23.350;2022-10-01T06:44:08;95984.13;;;14.90;91.26
51083;BME280;37131;42.694;23.350;2022-10-01T06:46:34;95976.72;;;15.16;91.04
51083;BME280;37131;42.694;23.350;2022-10-01T06:48:59;95956.66;;;15.09;90.97
51083;BME280;37131;42.694;23.350;2022-10-01T06:51:25;95939.50;;;15.36;90.22
51083;BME280;37131;42.694;23.350;2022-10-01T06:54:09;95944.59;;;15.42;90.09
51083;BME280;37131;42.694;23.350;2022-10-01T06:56:34;95973.13;;;15.05;89.22
51083;BME280;37131;42.694;23.350;2022-10-01T06:59:00;95981.31;;;15.54;87.57
51083;BME280;37131;42.694;23.350;2022-10-01T07:01:26;95984.78;;;15.72;86.42
51083;BME280;37131;42.694;23.350;2022-10-01T07:03:51;95976.78;;;15.78;88.14
51083;BME280;37131;42.694;23.350;2022-10-01T07:06:18;95945.94;;;15.91;86.83
51083;BME280;37131;42.694;23.350;2022-10-01T07:08:43;95947.72;;;15.73;88.68
51083;BME280;37131;42.694;23.350;2022-10-01T07:11:09;95984.47;;;15.68;87.38
51083;BME280;37131;42.694;23.350;2022-10-01T07:13:34;96010.56;;;16.04;84.31
51083;BME280;37131;42.694;23.350;2022-10-01T07:16:02;96005.19;;;16.33;83.62
51083;BME280;37131;42.694;23.350;2022-10-01T07:18:28;96004.00;;;16.40;83.80
51083;BME280;37131;42.694;23.350;2022-10-01T07:20:58;96010.13;;;16.68;81.03
51083;BME280;37131;42.694;23.350;2022-10-01T07:23:23;96025.28;;;16.95;80.45
51083;BME280;37131;42.694;23.350;2022-10-01T07:25:49;96011.72;;;17.08;79.07
51083;BME280;37131;42.694;23.350;2022-10-01T07:28:18;95991.78;;;17.17;80.82
51083;BME280;37131;42.694;23.350;2022-10-01T07:30:57;95986.53;;;17.45;78.15
51083;BME280;37131;42.694;23.350;2022-10-01T07:33:22;95977.63;;;17.51;77.35
51083;BME280;37131;42.694;23.350;2022-10-01T07:35:48;95969.19;;;17.81;76.85
51083;BME280;37131;42.694;23.350;2022-10-01T07:38:14;95968.34;;;18.08;75.63
51083;BME280;37131;42.694;23.350;2022-10-01T07:40:39;95950.81;;;18.34;73.99
51083;BME280;37131;42.694;23.350;2022-10-01T07:43:04;95951.59;;;17.92;74.62
51083;BME280;37131;42.694;23.350;2022-10-01T07:45:30;95958.72;;;18.29;73.42
51083;BME280;37131;42.694;23.350;2022-10-01T07:47:58;95960.97;;;18.58;70.84
51083;BME280;37131;42.694;23.350;2022-10-01T07:50:25;95961.59;;;18.75;71.13
51083;BME280;37131;42.694;23.350;2022-10-01T07:52:55;95963.78;;;18.94;71.88
51083;BME280;37131;42.694;23.350;2022-10-01T07:55:22;95956.16;;;19.08;70.60
51083;BME280;37131;42.694;23.350;2022-10-01T07:57:55;95965.72;;;19.19;70.64
51083;BME280;37131;42.694;23.350;2022-10-01T08:00:22;95967.06;;;19.27;69.34
51083;BME280;37131;42.694;23.350;2022-10-01T08:02:49;95978.69;;;19.26;70.69
51083;BME280;37131;42.694;23.350;2022-10-01T08:05:16;95982.38;;;19.35;70.47
51083;BME280;37131;42.694;23.350;2022-10-01T08:07:43;95966.00;;;19.38;67.85
51083;BME280;37131;42.694;23.350;2022-10-01T08:10:09;95947.47;;;19.38;70.51
51083;BME280;37131;42.694;23.350;2022-10-01T08:12:34;95948.81;;;19.41;70.27
51083;BME280;37131;42.694;23.350;2022-10-01T08:15:00;95942.22;;;19.49;67.31
51083;BME280;37131;42.694;23.350;2022-10-01T08:17:26;95927.53;;;18.84;67.52
51083;BME280;37131;42.694;23.350;2022-10-01T08:19:52;95918.41;;;19.18;67.51
51083;BME280;37131;42.694;23.350;2022-10-01T08:22:17;95921.03;;;19.28;66.04
51083;BME280;37131;42.694;23.350;2022-10-01T08:24:43;95924.25;;;18.51;67.96
51083;BME280;37131;42.694;23.350;2022-10-01T08:27:08;95923.63;;;18.92;67.43
51083;BME280;37131;42.694;23.350;2022-10-01T08:29:33;95913.63;;;19.25;67.14
51083;BME280;37131;42.694;23.350;2022-10-01T08:31:59;95922.56;;;18.98;66.68
51083;BME280;37131;42.694;23.350;2022-10-01T08:34:24;95928.44;;;19.26;68.25
51083;BME280;37131;42.694;23.350;2022-10-01T08:36:50;95925.03;;;19.36;66.79
51083;BME280;37131;42.694;23.350;2022-10-01T08:39:18;95913.94;;;19.49;68.78
51083;BME280;37131;42.694;23.350;2022-10-01T08:44:31;95909.44;;;19.50;67.22
51083;BME280;37131;42.694;23.350;2022-10-01T08:47:02;95890.13;;;19.39;68.76
51083;BME280;37131;42.694;23.350;2022-10-01T08:49:36;95897.00;;;19.35;68.78
51083;BME280;37131;42.694;23.350;2022-10-01T08:52:28;95900.97;;;19.53;67.89
51083;BME280;37131;42.694;23.350;2022-10-01T08:55:03;95909.78;;;18.74;68.47
51083;BME280;37131;42.694;23.350;2022-10-01T08:57:41;95913.34;;;18.96;71.45
51083;BME280;37131;42.694;23.350;2022-10-01T09:00:11;95914.69;;;19.14;69.95
51083;BME280;37131;42.694;23.350;2022-10-01T09:02:39;95911.88;;;18.62;73.38
51083;BME280;37131;42.694;23.350;2022-10-01T09:05:15;95937.28;;;18.84;71.52
51083;BME280;37131;42.694;23.350;2022-10-01T09:10:44;95932.63;;;18.96;72.97
51083;BME280;37131;42.694;23.350;2022-10-01T09:18:17;95982.81;;;19.01;71.18
51083;BME280;37131;42.694;23.350;2022-10-01T09:20:57;96005.53;;;18.87;73.11
51083;BME280;37131;42.694;23.350;2022-10-01T09:23:30;96004.75;;;18.91;72.77
51083;BME280;37131;42.694;23.350;2022-10-01T09:25:59;96014.72;;;18.84;75.07
51083;BME280;37131;42.694;23.350;2022-10-01T09:28:30;96024.53;;;18.89;74.58
51083;BME280;37131;42.694;23.350;2022-10-01T09:33:35;96024.19;;;18.80;78.22
51083;BME280;37131;42.694;23.350;2022-10-01T09:36:21;96016.25;;;17.40;82.26
51083;BME280;37131;42.694;23.350;2022-10-01T09:38:58;96017.16;;;17.78;81.86
51083;BME280;37131;42.694;23.350;2022-10-01T09:41:27;96020.06;;;18.09;81.69
51083;BME280;37131;42.694;23.350;2022-10-01T09:43:52;96018.13;;;18.32;80.48
51083;BME280;37131;42.694;23.350;2022-10-01T09:46:17;96010.78;;;18.39;81.14
51083;BME280;37131;42.694;23.350;2022-10-01T09:48:54;96013.25;;;18.56;81.76
51083;BME280;37131;42.694;23.350;2022-10-01T09:51:34;96007.53;;;18.69;81.53
51083;BME280;37131;42.694;23.350;2022-10-01T09:54:27;95990.59;;;18.65;81.07
51083;BME280;37131;42.694;23.350;2022-10-01T09:57:30;95968.69;;;18.65;79.26
51083;BME280;37131;42.694;23.350;2022-10-01T10:02:48;95959.16;;;18.64;79.29
51083;BME280;37131;42.694;23.350;2022-10-01T10:05:26;95977.06;;;18.56;79.76
51083;BME280;37131;42.694;23.350;2022-10-01T10:07:54;95975.56;;;18.76;78.94
51083;BME280;37131;42.694;23.350;2022-10-01T10:10:22;95961.31;;;18.82;78.00
51083;BME280;37131;42.694;23.350;2022-10-01T10:12:55;95973.66;;;18.56;79.58
51083;BME280;37131;42.694;23.350;2022-10-01T10:15:21;95974.97;;;18.16;81.95
51083;BME280;37131;42.694;23.350;2022-10-01T10:17:51;95957.75;;;18.03;84.26
51083;BME280;37131;42.694;23.350;2022-10-01T10:20:38;95932.94;;;17.66;86.17
51083;BME280;37131;42.694;23.350;2022-10-01T10:23:13;95966.19;;;18.00;86.17
51083;BME280;37131;42.694;23.350;2022-10-01T10:25:39;95947.09;;;18.25;87.01
51083;BME280;37131;42.694;23.350;2022-10-01T10:28:17;95936.94;;;18.54;86.50
51083;BME280;37131;42.694;23.350;2022-10-01T10:30:43;95946.50;;;18.18;87.36
51083;BME280;37131;42.694;23.350;2022-10-01T10:33:11;95951.84;;;17.91;88.64
51083;BME280;37131;42.694;23.350;2022-10-01T10:35:38;95963.97;;;18.24;88.62
51083;BME280;37131;42.694;23.350;2022-10-01T10:38:04;95972.25;;;18.43;88.64
51083;BME280;37131;42.694;23.350;2022-10-01T10:40:48;95969.31;;;18.34;90.09
51083;BME280;37131;42.694;23.350;2022-10-01T10:43:28;95958.47;;;18.31;88.97
51083;BME280;37131;42.694;23.350;2022-10-01T10:45:56;95962.22;;;18.40;88.69
51083;BME280;37131;42.694;23.350;2022-10-01T10:48:31;95925.91;;;18.15;88.64
51083;BME280;37131;42.694;23.350;2022-10-01T10:51:01;95929.19;;;17.95;92.97
51083;BME280;37131;42.694;23.350;2022-10-01T10:53:29;95934.91;;;18.19;90.74
51083;BME280;37131;42.694;23.350;2022-10-01T10:56:02;95925.72;;;18.32;91.41
51083;BME280;37131;42.694;23.350;2022-10-01T10:58:32;95923.44;;;18.51;90.79
51083;BME280;37131;42.694;23.350;2022-10-01T11:01:04;95909.44;;;18.50;92.38
51083;BME280;37131;42.694;23.350;2022-10-01T11:03:31;95892.22;;;18.32;92.78
51083;BME280;37131;42.694;23.350;2022-10-01T11:06:02;95910.31;;;18.66;91.57
51083;BME280;37131;42.694;23.350;2022-10-01T11:08:33;95897.75;;;18.36;90.61
51083;BME280;37131;42.694;23.350;2022-10-01T11:38:27;95822.69;;;18.95;89.49
51083;BME280;37131;42.694;23.350;2022-10-01T11:41:25;95808.41;;;18.91;91.99
51083;BME280;37131;42.694;23.350;2022-10-01T11:46:33;95802.84;;;18.92;96.18
51083;BME280;37131;42.694;23.350;2022-10-01T11:51:43;95772.75;;;19.24;96.05
51083;BME280;37131;42.694;23.350;2022-10-01T11:54:13;95762.97;;;19.30;97.19
51083;BME280;37131;42.694;23.350;2022-10-01T11:56:52;95757.34;;;18.49;100.00
51083;BME280;37131;42.694;23.350;2022-10-01T11:59:42;95761.13;;;18.95;100.00
51083;BME280;37131;42.694;23.350;2022-10-01T12:05:02;95783.34;;;19.19;100.00
51083;BME280;37131;42.694;23.350;2022-10-01T12:13:09;95766.81;;;19.84;95.44
51083;BME280;37131;42.694;23.350;2022-10-01T12:18:23;95775.44;;;20.15;91.27
51083;BME280;37131;42.694;23.350;2022-10-01T12:20:53;95771.38;;;20.28;90.97
51083;BME280;37131;42.694;23.350;2022-10-01T12:23:33;95783.00;;;20.38;90.43
51083;BME280;37131;42.694;23.350;2022-10-01T12:26:09;95786.47;;;20.33;91.15
51083;BME280;37131;42.694;23.350;2022-10-01T12:32:00;95764.53;;;20.77;87.31
51083;BME280;37131;42.694;23.350;2022-10-01T12:34:40;95747.41;;;20.09;88.73
51083;BME280;37131;42.694;23.350;2022-10-01T12:43:15;95772.28;;;20.08;88.20
51083;BME280;37131;42.694;23.350;2022-10-01T12:46:12;95768.78;;;20.18;85.90
51083;BME280;37131;42.694;23.350;2022-10-01T12:48:59;95766.84;;;19.79;90.43
51083;BME280;37131;42.694;23.350;2022-10-01T12:52:00;95652.78;;;18.95;90.07
51083;BME280;37131;42.694;23.350;2022-10-01T12:54:49;95802.53;;;19.92;89.71
51083;BME280;37131;42.694;23.350;2022-10-01T13:00:21;95730.31;;;19.76;91.31
51083;BME280;37131;42.694;23.350;2022-10-01T13:08:31;95501.59;;;19.58;94.92
51083;BME280;37131;42.694;23.350;2022-10-01T13:13:49;95632.06;;;19.38;98.00
51083;BME280;37131;42.694;23.350;2022-10-01T13:19:16;95630.53;;;19.87;96.56
51083;BME280;37131;42.694;23.350;2022-10-01T13:27:22;95632.50;;;20.10;97.21
51083;BME280;37131;42.694;23.350;2022-10-01T13:30:05;95629.56;;;20.17;97.51
51083;BME280;37131;42.694;23.350;2022-10-01T13:32:58;95626.38;;;20.15;96.04
51083;BME280;37131;42.694;23.350;2022-10-01T13:35:28;95634.06;;;20.16;95.82
51083;BME280;37131;42.694;23.350;2022-10-01T13:37:56;95633.88;;;20.08;95.75
51083;BME280;37131;42.694;23.350;2022-10-01T13:40:27;95644.34;;;20.23;97.59
51083;BME280;37131;42.694;23.350;2022-10-01T13:43:11;95659.56;;;20.02;97.55
51083;BME280;37131;42.694;23.350;2022-10-01T13:45:48;95670.66;;;20.04;97.71
51083;BME280;37131;42.694;23.350;2022-10-01T13:50:58;95650.91;;;20.31;96.88
51083;BME280;37131;42.694;23.350;2022-10-01T13:53:31;95645.31;;;20.32;95.51
51083;BME280;37131;42.694;23.350;2022-10-01T13:55:58;95633.28;;;20.16;95.53
51083;BME280;37131;42.694;23.350;2022-10-01T13:58:31;95642.41;;;20.34;96.70
51083;BME280;37131;42.694;23.350;2022-10-01T14:01:00;95634.47;;;20.34;93.78
51083;BME280;37131;42.694;23.350;2022-10-01T14:03:43;95622.03;;;20.35;94.81
51083;BME280;37131;42.694;23.350;2022-10-01T14:06:27;95621.41;;;20.43;94.95
51083;BME280;37131;42.694;23.350;2022-10-01T14:09:11;95598.22;;;20.29;93.96
51083;BME280;37131;42.694;23.350;2022-10-01T14:11:42;95592.09;;;20.34;93.26
51083;BME280;37131;42.694;23.350;2022-10-01T14:15:11;95580.25;;;20.26;93.03
51083;BME280;37131;42.694;23.350;2022-10-01T14:17:49;95570.66;;;20.01;92.56
51083;BME280;37131;42.694;23.350;2022-10-01T14:20:23;95571.53;;;20.21;92.59
51083;BME280;37131;42.694;23.350;2022-10-01T14:23:07;95564.84;;;20.28;91.40
51083;BME280;37131;42.694;23.350;2022-10-01T14:25:55;95554.63;;;20.16;90.08
51083;BME280;37131;42.694;23.350;2022-10-01T14:31:22;95544.84;;;20.17;93.99
51083;BME280;37131;42.694;23.350;2022-10-01T14:34:17;95534.22;;;20.22;93.38
51083;BME280;37131;42.694;23.350;2022-10-01T14:36:52;95530.22;;;20.25;93.22
51083;BME280;37131;42.694;23.350;2022-10-01T14:39:19;95531.13;;;20.10;93.72
51083;BME280;37131;42.694;23.350;2022-10-01T14:41:47;95527.38;;;20.16;93.65
51083;BME280;37131;42.694;23.350;2022-10-01T14:44:20;95521.22;;;20.26;94.07
51083;BME280;37131;42.694;23.350;2022-10-01T14:46:50;95522.34;;;20.20;94.69
51083;BME280;37131;42.694;23.350;2022-10-01T14:49:23;95521.91;;;20.07;93.66